Time;durP1;ratioP1;P1;durP2;ratioP2;P2;SDS_P1;SDS_P2;PMS_P1;PMS_P2;Temp;Humidity;BMP_temperature;BMP_pressure;BME280_temperature;BME280_humidity;BME280_pressure;Samples;Min_cycle;Max_cycle;Signal;HPM_P1;HPM_P2
2021/06/05 08:42:55;;;;;;;6.28;4.18;;;;;;;27.19;90.72;101687.56;5564652;23;20066;-76
2021/06/05 08:45:41;;;;;;;4.75;4.03;;;;;;;27.69;86.84;101692.03;4918976;29;20040;-75
2021/06/05 08:48:27;;;;;;;7.47;4.53;;;;;;;27.09;85.42;101685.63;4918393;29;20028;-76
2021/06/05 08:51:22;;;;;;;7.63;4.53;;;;;;;27.45;86.08;101674.97;4918405;29;20036;-75
2021/06/05 08:54:24;;;;;;;8.73;4.40;;;;;;;27.27;85.60;101677.16;4905026;29;20032;-75
2021/06/05 08:57:54;;;;;;;6.85;3.85;;;;;;;27.46;83.46;101674.00;4904804;29;20465;-75
2021/06/05 09:00:46;;;;;;;5.75;4.10;;;;;;;27.26;84.57;101672.75;4829752;29;20068;-75
2021/06/05 09:03:35;;;;;;;6.00;4.07;;;;;;;27.52;83.42;101669.00;4841819;29;20387;-76
2021/06/05 09:06:51;;;;;;;6.03;3.72;;;;;;;27.09;84.74;101664.94;4901124;29;20045;-75
2021/06/05 09:09:52;;;;;;;4.43;4.00;;;;;;;27.40;82.96;101666.34;4921627;29;20035;-75
2021/06/05 09:12:37;;;;;;;5.35;4.15;;;;;;;27.82;83.80;101662.38;4921866;29;20095;-75
2021/06/05 09:15:28;;;;;;;9.40;3.55;;;;;;;27.61;79.37;101666.63;4908503;29;20449;-75
2021/06/05 09:18:14;;;;;;;5.07;3.25;;;;;;;27.61;78.78;101655.84;4909565;29;20032;-76
2021/06/05 09:21:06;;;;;;;5.43;3.78;;;;;;;27.68;74.11;101655.28;4921783;29;20095;-75
2021/06/05 09:23:53;;;;;;;5.15;3.65;;;;;;;27.50;73.62;101651.25;4908988;29;20028;-77
2021/06/05 09:26:40;;;;;;;7.75;3.70;;;;;;;27.51;75.39;101655.66;4908337;29;20032;-75
2021/06/05 09:29:27;;;;;;;5.65;3.75;;;;;;;26.67;79.03;101650.97;4922415;29;20458;-75
2021/06/05 09:32:15;;;;;;;4.28;3.50;;;;;;;26.64;79.67;101641.28;4908383;29;20457;-74
2021/06/05 09:35:04;;;;;;;4.47;3.70;;;;;;;26.85;82.68;101639.78;4921626;29;20040;-76
2021/06/05 09:37:53;;;;;;;4.38;3.80;;;;;;;27.44;77.33;101633.72;4908743;29;20028;-76
2021/06/05 09:40:53;;;;;;;5.63;3.22;;;;;;;27.65;73.08;101628.59;4921109;29;20032;-75
2021/06/05 09:43:41;;;;;;;5.60;3.17;;;;;;;27.53;69.71;101634.88;4921356;29;20056;-76
2021/06/05 09:46:33;;;;;;;4.28;3.28;;;;;;;26.31;74.17;101638.19;4921625;29;20024;-75
2021/06/05 09:49:33;;;;;;;4.47;3.83;;;;;;;27.13;73.56;101618.00;4921442;29;20039;-75
2021/06/05 09:52:30;;;;;;;8.25;3.88;;;;;;;27.29;71.75;101628.59;4907689;29;20032;-76
2021/06/05 09:55:16;;;;;;;5.90;3.38;;;;;;;27.75;70.35;101624.22;4921124;29;20445;-75
2021/06/05 09:58:09;;;;;;;18.55;12.02;;;;;;;27.84;67.54;101628.97;4920206;29;20091;-75
2021/06/05 10:01:21;;;;;;;22.60;12.10;;;;;;;27.96;67.21;101629.91;4920429;29;20032;-75
2021/06/05 10:04:17;;;;;;;20.63;10.20;;;;;;;27.49;68.13;101614.53;4907140;29;20028;-75
2021/06/05 10:07:23;;;;;;;11.98;7.60;;;;;;;27.65;67.86;101615.13;4907931;29;20079;-76
2021/06/05 10:10:33;;;;;;;7.80;3.50;;;;;;;27.09;66.20;101608.44;4907840;29;20099;-75
2021/06/05 10:13:29;;;;;;;4.60;3.30;;;;;;;27.03;65.50;101599.97;4920859;29;20107;-76
2021/06/05 10:16:18;;;;;;;9.80;3.65;;;;;;;26.73;70.16;101615.59;4920545;29;20501;-76
2021/06/05 10:19:14;;;;;;;7.80;3.60;;;;;;;27.06;67.16;101597.06;4906615;29;20110;-76
2021/06/05 10:22:00;;;;;;;5.97;3.40;;;;;;;27.16;68.44;101592.72;4920325;29;20032;-75
2021/06/05 10:25:03;;;;;;;5.72;3.63;;;;;;;27.19;70.23;101598.75;4920605;29;20036;-76
2021/06/05 10:27:49;;;;;;;7.35;3.80;;;;;;;27.59;65.17;101588.63;4920902;29;20028;-75
2021/06/05 10:30:59;;;;;;;5.75;3.65;;;;;;;27.84;65.30;101603.88;4920457;29;20087;-76
2021/06/05 10:33:57;;;;;;;5.97;3.78;;;;;;;27.71;63.79;101593.09;4920593;29;20111;-76
2021/06/05 10:36:49;;;;;;;6.43;3.25;;;;;;;27.63;59.73;101589.25;4919620;29;20372;-76
2021/06/05 10:39:38;;;;;;;6.55;3.20;;;;;;;28.24;61.63;101592.63;4920998;29;20047;-76
2021/06/05 10:42:26;;;;;;;5.65;3.20;;;;;;;27.48;57.55;101589.44;4919911;29;20362;-76
2021/06/05 10:45:26;;;;;;;5.38;3.20;;;;;;;27.75;58.67;101591.03;4906898;29;20032;-76
2021/06/05 10:48:17;;;;;;;5.20;2.97;;;;;;;27.70;57.20;101575.25;4920217;29;20047;-75
2021/06/05 10:51:20;;;;;;;5.97;3.22;;;;;;;27.76;54.40;101576.63;4919376;29;20457;-76
2021/06/05 10:54:13;;;;;;;5.10;3.10;;;;;;;26.69;55.69;101576.44;4920126;29;20055;-76
2021/06/05 10:57:05;;;;;;;5.07;3.28;;;;;;;27.95;55.22;101574.25;4919810;29;20032;-76
2021/06/05 10:59:55;;;;;;;3.75;2.90;;;;;;;28.70;54.10;101571.94;4906180;29;20028;-76
2021/06/05 11:02:48;;;;;;;4.15;3.35;;;;;;;28.47;55.84;101569.31;4920208;29;20096;-76
2021/06/05 11:05:35;;;;;;;5.20;3.35;;;;;;;27.66;57.84;101565.66;4905956;29;20262;-76
2021/06/05 11:08:20;;;;;;;4.60;3.10;;;;;;;28.52;55.58;101565.28;4919330;29;20551;-77
2021/06/05 11:11:06;;;;;;;5.30;3.05;;;;;;;28.79;53.88;101565.78;4919013;29;20031;-76
2021/06/05 11:13:52;;;;;;;4.20;2.90;;;;;;;29.88;51.38;101566.59;4919504;29;20032;-76
2021/06/05 11:16:56;;;;;;;3.63;3.22;;;;;;;29.36;50.35;101553.00;4920118;29;20040;-76
2021/06/05 11:19:50;;;;;;;4.60;2.90;;;;;;;29.69;49.11;101562.88;4918938;29;20024;-75
2021/06/05 11:22:48;;;;;;;5.22;3.40;;;;;;;29.74;48.31;101566.06;4919969;29;20422;-75
2021/06/05 11:25:44;;;;;;;3.72;3.08;;;;;;;29.19;49.63;101561.63;4919256;29;20036;-75
2021/06/05 11:28:30;;;;;;;4.93;3.08;;;;;;;30.12;46.20;101555.53;4920025;29;20032;-76
2021/06/05 11:31:47;;;;;;;4.78;3.17;;;;;;;30.21;47.30;101557.47;4917919;29;20059;-76
2021/06/05 11:34:33;;;;;;;3.35;2.90;;;;;;;30.74;46.09;101557.28;4920036;29;20479;-76
2021/06/05 11:37:19;;;;;;;10.18;3.22;;;;;;;30.38;46.44;101555.03;4919249;29;20028;-76
2021/06/05 11:40:10;;;;;;;5.78;2.92;;;;;;;30.32;48.03;101549.31;4918483;29;20032;-76
2021/06/05 11:42:56;;;;;;;3.75;3.13;;;;;;;30.61;46.51;101539.50;4918627;29;20075;-75
2021/06/05 11:46:16;;;;;;;5.45;3.40;;;;;;;30.60;45.61;101532.38;4917755;29;20107;-75
2021/06/05 11:49:05;;;;;;;4.07;2.80;;;;;;;29.77;45.33;101536.09;4918328;29;20043;-75
2021/06/05 11:51:50;;;;;;;5.18;3.00;;;;;;;30.18;45.68;101526.16;4904902;29;20097;-76
2021/06/05 11:54:38;;;;;;;6.57;2.72;;;;;;;29.08;45.25;101525.69;4917184;29;20032;-75
2021/06/05 11:57:37;;;;;;;3.78;2.80;;;;;;;30.22;44.02;101530.31;4918575;29;20125;-76
2021/06/05 12:00:31;;;;;;;4.78;2.95;;;;;;;29.66;43.92;101534.25;4917827;29;20051;-76
2021/06/05 12:03:25;;;;;;;6.05;2.67;;;;;;;30.09;42.98;101535.03;4918644;29;20039;-75
2021/06/05 12:06:13;;;;;;;10.07;2.83;;;;;;;30.41;44.00;101532.28;4917674;29;20402;-75
2021/06/05 12:09:14;;;;;;;4.38;2.80;;;;;;;30.08;45.31;101533.34;4904610;29;20044;-75
2021/06/05 12:12:08;;;;;;;6.68;3.17;;;;;;;29.34;47.09;101533.38;4917624;29;20036;-76
2021/06/05 12:15:15;;;;;;;5.05;3.40;;;;;;;28.48;48.69;101536.00;4918160;29;20140;-75
2021/06/05 12:18:06;;;;;;;3.38;2.97;;;;;;;28.72;49.83;101525.94;4917566;29;20111;-75
2021/06/05 12:20:59;;;;;;;5.93;3.30;;;;;;;28.66;49.22;101524.59;4918590;29;20103;-76
2021/06/05 12:23:44;;;;;;;4.57;3.38;;;;;;;28.72;49.46;101526.78;4917539;29;20113;-75
2021/06/05 12:26:30;;;;;;;5.00;3.30;;;;;;;28.20;50.97;101520.22;4905265;29;20039;-76
2021/06/05 12:29:24;;;;;;;5.28;3.40;;;;;;;29.02;50.70;101523.50;4917963;29;20024;-76
2021/06/05 12:32:17;;;;;;;3.85;2.90;;;;;;;30.18;48.23;101515.34;4917420;29;20024;-77
2021/06/05 12:35:34;;;;;;;3.42;2.83;;;;;;;29.24;48.74;101515.34;4917044;29;20036;-76
2021/06/05 12:38:39;;;;;;;8.75;3.10;;;;;;;30.05;45.44;101514.66;4904273;29;20111;-75
2021/06/05 12:41:28;;;;;;;3.35;2.80;;;;;;;30.31;43.18;101505.22;4917946;29;20031;-76
2021/06/05 12:44:29;;;;;;;3.42;2.67;;;;;;;30.74;41.12;101513.13;4897023;29;103725;-76
2021/06/05 12:47:21;;;;;;;6.68;3.05;;;;;;;29.87;42.35;101509.97;4918506;29;20068;-76
2021/06/05 12:50:12;;;;;;;5.63;3.25;;;;;;;29.76;43.46;101505.50;4918553;29;20062;-76
2021/06/05 12:53:00;;;;;;;6.97;3.35;;;;;;;29.93;42.51;101507.59;4918301;29;20135;-76
2021/06/05 12:55:58;;;;;;;4.22;3.00;;;;;;;29.21;43.86;101502.13;4904949;29;20031;-76
2021/06/05 12:58:45;;;;;;;6.15;3.35;;;;;;;28.95;45.43;101496.13;4904601;29;20032;-76
2021/06/05 13:01:31;;;;;;;5.65;3.33;;;;;;;28.51;46.73;101493.44;4904437;29;20039;-75
2021/06/05 13:04:26;;;;;;;5.70;3.35;;;;;;;28.15;47.60;101487.34;4905541;29;20091;-75
2021/06/05 13:07:12;;;;;;;8.25;3.63;;;;;;;28.12;47.84;101485.75;4917111;29;20091;-75
2021/06/05 13:09:58;;;;;;;5.47;3.85;;;;;;;27.98;48.58;101483.31;4906075;29;20032;-75
2021/06/05 13:12:44;;;;;;;18.15;14.00;;;;;;;28.33;49.97;101486.75;4904197;29;20036;-75
2021/06/05 13:15:32;;;;;;;10.57;5.43;;;;;;;28.18;49.39;101477.22;4918155;29;20028;-75
2021/06/05 13:18:31;;;;;;;11.88;7.65;;;;;;;28.09;50.38;101480.63;4904425;29;20372;-75
2021/06/05 13:21:20;;;;;;;6.88;5.80;;;;;;;28.24;51.94;101471.31;4918201;29;20032;-76
2021/06/05 13:24:14;;;;;;;5.63;3.30;;;;;;;27.83;52.58;101468.31;4916756;29;20111;-75
2021/06/05 13:27:19;;;;;;;6.03;3.60;;;;;;;27.81;54.05;101469.38;4917969;29;20415;-75
2021/06/05 13:30:21;;;;;;;6.60;4.32;;;;;;;28.08;51.09;101465.41;4904138;29;20099;-76
2021/06/05 13:33:38;;;;;;;4.10;3.50;;;;;;;27.99;51.46;101458.06;4918204;29;20024;-76
2021/06/05 13:36:29;;;;;;;5.97;3.97;;;;;;;28.23;50.43;101455.28;4918532;29;20040;-76
2021/06/05 13:39:19;;;;;;;4.40;3.45;;;;;;;27.63;48.37;101446.53;4918050;29;20040;-76
2021/06/05 13:42:05;;;;;;;5.13;3.50;;;;;;;28.57;49.28;101447.09;4918003;29;20033;-76
2021/06/05 13:44:51;;;;;;;4.95;3.38;;;;;;;28.87;46.24;101441.91;4904677;29;20079;-76
2021/06/05 13:47:37;;;;;;;5.22;3.95;;;;;;;28.52;46.11;101446.63;4919272;29;20020;-76
2021/06/05 13:50:27;;;;;;;3.55;3.22;;;;;;;29.54;44.16;101438.00;4932552;29;20032;-75
2021/06/05 13:53:26;;;;;;;5.70;4.50;;;;;;;27.90;47.20;101437.25;4919262;29;20092;-75
2021/06/05 13:56:17;;;;;;;32.13;26.70;;;;;;;28.17;47.02;101440.47;4930209;29;20028;-76
2021/06/05 13:59:04;;;;;;;7.15;3.78;;;;;;;27.66;48.13;101439.09;4922635;29;20028;-75
2021/06/05 14:01:49;;;;;;;4.25;3.35;;;;;;;27.39;48.84;101433.13;4921976;29;20198;-75
2021/06/05 14:04:35;;;;;;;7.68;4.40;;;;;;;27.58;50.26;101435.25;4910381;29;20024;-75
2021/06/05 14:07:23;;;;;;;6.25;3.65;;;;;;;27.82;49.33;101426.19;4930642;29;20111;-74
2021/06/05 14:10:09;;;;;;;5.93;3.33;;;;;;;27.94;49.59;101427.06;4929193;29;20066;-74
2021/06/05 14:12:57;;;;;;;4.63;3.45;;;;;;;27.82;50.10;101425.31;4930413;29;20043;-74
2021/06/05 14:15:46;;;;;;;6.82;3.42;;;;;;;27.42;49.90;101435.59;4921667;29;20028;-75
2021/06/05 14:18:32;;;;;;;5.72;3.40;;;;;;;27.67;49.90;101430.03;4920746;29;20024;-75
2021/06/05 14:21:18;;;;;;;5.70;3.63;;;;;;;27.38;51.00;101431.41;4921634;29;20373;-75
2021/06/05 14:24:05;;;;;;;7.68;3.80;;;;;;;27.72;52.16;101419.75;4907011;29;20497;-75
2021/06/05 14:26:51;;;;;;;5.05;3.60;;;;;;;28.01;49.71;101417.53;4907849;29;20028;-75
2021/06/05 14:29:37;;;;;;;7.60;5.00;;;;;;;27.96;51.32;101417.88;4920516;29;20043;-75
2021/06/05 14:32:24;;;;;;;20.67;17.10;;;;;;;28.17;51.14;101416.22;4906886;29;20032;-75
2021/06/05 14:35:10;;;;;;;8.15;6.18;;;;;;;27.74;49.64;101407.06;4920627;29;20028;-76
2021/06/05 14:37:56;;;;;;;5.90;4.57;;;;;;;27.69;51.05;101405.69;4920442;29;20028;-75
2021/06/05 14:40:43;;;;;;;4.15;3.40;;;;;;;27.95;52.09;101416.16;4920802;29;20032;-76
2021/06/05 14:43:29;;;;;;;4.38;3.83;;;;;;;27.92;51.18;101402.94;4906684;29;20537;-76
2021/06/05 14:46:15;;;;;;;6.88;3.83;;;;;;;28.05;51.04;101402.84;4920043;29;20032;-76
2021/06/05 14:49:01;;;;;;;5.85;3.92;;;;;;;27.82;51.27;101396.56;4920049;29;20024;-76
2021/06/05 14:51:47;;;;;;;4.55;3.65;;;;;;;28.05;49.69;101392.94;4919543;29;20111;-74
2021/06/05 14:54:33;;;;;;;5.47;3.80;;;;;;;27.93;49.66;101391.22;4920153;29;20140;-75
2021/06/05 14:57:19;;;;;;;3.83;3.40;;;;;;;27.39;51.83;101393.63;4920264;29;20024;-77
2021/06/05 15:00:07;;;;;;;8.65;3.67;;;;;;;27.15;50.00;101394.56;4906723;29;20110;-75
2021/06/05 15:02:55;;;;;;;4.80;3.75;;;;;;;27.32;52.47;101386.09;4906439;29;20024;-75
2021/06/05 15:05:40;;;;;;;6.38;3.80;;;;;;;27.20;52.56;101392.41;4919152;29;20059;-75
2021/06/05 15:08:26;;;;;;;5.38;3.50;;;;;;;27.53;51.25;101377.25;4919930;29;20035;-75
2021/06/05 15:11:12;;;;;;;4.57;3.53;;;;;;;27.44;48.17;101380.66;4906234;29;20028;-76
2021/06/05 15:13:58;;;;;;;8.82;6.18;;;;;;;27.39;49.56;101388.22;4906442;29;20454;-76
2021/06/05 15:16:43;;;;;;;5.72;4.18;;;;;;;27.75;50.51;101380.94;4905968;29;20099;-76
2021/06/05 15:19:30;;;;;;;7.32;4.88;;;;;;;26.84;53.98;101379.88;4919095;29;20028;-75
2021/06/05 15:22:16;;;;;;;4.97;4.32;;;;;;;27.23;52.70;101378.75;4920127;29;20525;-76
2021/06/05 15:25:04;;;;;;;4.78;3.30;;;;;;;27.55;51.81;101368.22;4918777;29;20028;-78
2021/06/05 15:27:50;;;;;;;5.00;3.60;;;;;;;27.54;52.97;101359.25;4919761;29;20083;-75
2021/06/05 15:30:38;;;;;;;4.85;3.60;;;;;;;27.62;51.51;101364.03;4919021;29;20103;-76
2021/06/05 15:33:29;;;;;;;4.72;3.35;;;;;;;27.29;54.14;101368.34;4919407;29;20031;-75
2021/06/05 15:36:15;;;;;;;5.20;3.10;;;;;;;27.62;53.37;101366.72;4918629;29;20545;-76
2021/06/05 15:39:03;;;;;;;5.07;3.25;;;;;;;26.64;54.83;101366.19;4919205;29;20424;-75
2021/06/05 15:41:49;;;;;;;4.35;3.58;;;;;;;26.50;56.83;101364.50;4919183;29;20103;-75
2021/06/05 15:44:34;;;;;;;5.55;3.20;;;;;;;26.92;57.43;101363.16;4920140;29;20389;-76
2021/06/05 15:47:22;;;;;;;4.63;3.67;;;;;;;26.79;56.19;101360.53;4918941;29;20100;-77
2021/06/05 15:50:13;;;;;;;4.50;3.95;;;;;;;26.85;55.80;101360.06;4905431;29;20115;-75
2021/06/05 15:52:58;;;;;;;6.38;4.57;;;;;;;26.86;54.79;101363.63;4919036;29;20036;-76
2021/06/05 15:55:47;;;;;;;9.98;4.28;;;;;;;26.74;52.95;101372.59;4919054;29;20024;-75
2021/06/05 15:58:33;;;;;;;6.43;3.78;;;;;;;27.08;52.04;101366.41;4920101;29;20537;-75
2021/06/05 16:01:20;;;;;;;4.70;3.53;;;;;;;26.98;50.63;101365.41;4918864;29;20024;-75
2021/06/05 16:04:08;;;;;;;7.03;4.38;;;;;;;26.91;52.17;101359.63;4918745;29;20093;-75
2021/06/05 16:06:54;;;;;;;6.38;3.95;;;;;;;26.64;55.34;101358.13;4918115;29;20042;-76
2021/06/05 16:09:40;;;;;;;6.15;4.05;;;;;;;26.75;54.96;101363.56;4918932;29;20032;-75
2021/06/05 16:12:26;;;;;;;5.47;3.70;;;;;;;26.77;53.13;101356.25;4904748;29;20035;-75
2021/06/05 16:15:31;;;;;;;5.68;3.47;;;;;;;26.60;54.05;101353.97;4904927;29;20032;-76
2021/06/05 16:18:23;;;;;;;5.35;3.60;;;;;;;26.86;53.56;101344.78;4904542;29;20032;-75
2021/06/05 16:21:18;;;;;;;4.75;3.78;;;;;;;26.79;54.87;101339.03;4918884;29;20080;-75
2021/06/05 16:24:05;;;;;;;7.50;3.85;;;;;;;26.92;54.19;101342.50;4918425;29;20036;-75
2021/06/05 16:26:53;;;;;;;4.07;3.67;;;;;;;26.77;55.63;101332.88;4919545;29;20024;-74
2021/06/05 16:29:39;;;;;;;5.78;3.20;;;;;;;26.81;55.29;101330.84;4905936;29;20043;-75
2021/06/05 16:32:25;;;;;;;5.05;4.00;;;;;;;26.63;56.34;101332.19;4918799;29;20405;-76
2021/06/05 16:35:12;;;;;;;4.50;3.95;;;;;;;26.69;56.84;101321.84;4921761;29;20032;-75
2021/06/05 16:37:58;;;;;;;6.18;4.00;;;;;;;26.79;55.59;101327.41;4919071;29;20036;-75
2021/06/05 16:40:46;;;;;;;5.75;3.72;;;;;;;26.72;54.83;101326.16;4918802;29;20039;-76
2021/06/05 16:43:36;;;;;;;5.38;3.47;;;;;;;25.63;58.70;101327.00;4917457;29;20062;-76
2021/06/05 16:46:22;;;;;;;5.03;3.70;;;;;;;25.85;59.75;101320.00;4904775;29;20039;-75
2021/06/05 16:49:08;;;;;;;4.50;3.47;;;;;;;26.41;58.28;101315.94;4917773;29;20335;-75
2021/06/05 16:51:54;;;;;;;5.20;3.45;;;;;;;26.09;62.15;101320.09;4917480;29;20111;-75
2021/06/05 16:54:40;;;;;;;7.45;3.75;;;;;;;26.31;63.22;101315.72;4917263;29;20381;-75
2021/06/05 16:57:26;;;;;;;5.38;3.58;;;;;;;26.31;63.68;101314.88;4917467;29;20032;-75
2021/06/05 17:00:21;;;;;;;4.38;3.50;;;;;;;26.20;64.33;101309.44;4918114;29;20028;-75
2021/06/05 17:03:08;;;;;;;7.05;3.60;;;;;;;25.75;66.10;101304.63;4918074;29;20043;-75
2021/06/05 17:05:55;;;;;;;4.95;3.50;;;;;;;25.52;68.63;101302.72;4918198;29;20040;-75
2021/06/05 17:08:41;;;;;;;5.78;3.55;;;;;;;25.94;65.97;101302.38;4918146;29;20036;-75
2021/06/05 17:11:27;;;;;;;6.68;3.60;;;;;;;26.05;65.83;101308.72;4918247;29;20055;-75
2021/06/05 17:14:14;;;;;;;4.97;3.42;;;;;;;26.17;65.23;101298.91;4917558;29;20040;-75
2021/06/05 17:17:00;;;;;;;4.88;3.60;;;;;;;26.02;65.51;101291.94;4918148;29;20111;-75
2021/06/05 17:19:46;;;;;;;6.13;4.20;;;;;;;25.81;67.63;101294.34;4904404;29;20065;-75
2021/06/05 17:22:32;;;;;;;9.05;4.10;;;;;;;25.76;67.56;101291.09;4917997;29;20054;-75
2021/06/05 17:25:26;;;;;;;4.60;4.10;;;;;;;25.80;67.71;101295.28;4903901;29;20028;-76
2021/06/05 17:28:14;;;;;;;4.40;3.95;;;;;;;25.47;69.58;101289.59;4918140;29;20028;-76
2021/06/05 17:31:00;;;;;;;9.23;4.47;;;;;;;25.71;69.30;101292.38;4907421;29;20044;-76
2021/06/05 17:33:46;;;;;;;5.45;3.92;;;;;;;25.59;70.37;101285.22;4911723;29;20024;-76
2021/06/05 17:36:32;;;;;;;9.15;4.50;;;;;;;25.69;70.30;101295.19;4914425;29;20040;-76
2021/06/05 17:39:18;;;;;;;8.27;4.20;;;;;;;25.55;71.53;101289.94;4924107;29;20074;-76
2021/06/05 17:42:05;;;;;;;7.55;4.22;;;;;;;25.55;72.33;101287.25;4907226;29;20047;-76
2021/06/05 17:44:51;;;;;;;9.85;4.40;;;;;;;25.52;71.31;101286.63;4913243;29;20100;-76
2021/06/05 17:47:37;;;;;;;7.65;4.93;;;;;;;25.03;72.17;101281.06;4921206;29;20035;-76
2021/06/05 17:50:23;;;;;;;9.43;4.80;;;;;;;25.08;73.23;101278.91;4921472;29;20020;-75
2021/06/05 17:53:11;;;;;;;9.10;5.25;;;;;;;25.37;71.92;101283.19;4921860;29;20028;-75
2021/06/05 17:55:56;;;;;;;7.53;5.50;;;;;;;25.24;73.77;101279.56;4921264;29;20402;-74
2021/06/05 17:58:42;;;;;;;8.73;4.70;;;;;;;25.18;75.43;101273.78;4921766;29;20028;-75
2021/06/05 18:01:29;;;;;;;7.43;5.10;;;;;;;25.15;76.16;101282.91;4921196;29;20095;-75
2021/06/05 18:04:19;;;;;;;12.30;5.15;;;;;;;25.05;77.38;101278.28;4920980;29;20032;-75
2021/06/05 18:07:05;;;;;;;7.63;4.60;;;;;;;24.86;78.36;101277.78;4920191;29;20031;-75
2021/06/05 18:09:51;;;;;;;9.85;5.35;;;;;;;24.84;79.06;101287.78;4920179;29;20361;-75
2021/06/05 18:12:37;;;;;;;8.93;5.60;;;;;;;24.79;80.98;101288.06;4919636;29;20091;-75
2021/06/05 18:15:24;;;;;;;11.38;5.65;;;;;;;24.78;82.01;101282.81;4920232;29;20461;-75
2021/06/05 18:18:11;;;;;;;9.85;6.20;;;;;;;24.60;84.95;101286.69;4920658;29;20454;-75
2021/06/05 18:20:58;;;;;;;10.82;5.47;;;;;;;24.46;87.58;101292.09;4920647;29;20059;-75
2021/06/05 18:23:43;;;;;;;13.25;5.72;;;;;;;24.45;88.69;101288.56;4920718;29;20358;-75
2021/06/05 18:26:32;;;;;;;10.73;5.28;;;;;;;24.43;89.21;101303.03;4906918;29;20453;-75
2021/06/05 18:29:18;;;;;;;9.13;5.63;;;;;;;24.30;91.10;101302.13;4920552;29;20071;-74
2021/06/05 18:32:07;;;;;;;13.10;6.20;;;;;;;24.33;90.84;101302.78;4906745;29;20461;-75
2021/06/05 18:34:53;;;;;;;9.50;6.05;;;;;;;24.24;90.35;101310.53;4920299;29;20482;-76
2021/06/05 18:37:38;;;;;;;15.88;6.07;;;;;;;24.11;90.30;101310.44;4919791;29;20119;-76
2021/06/05 18:40:27;;;;;;;12.50;7.10;;;;;;;23.89;91.50;101310.06;4921389;29;20110;-76
2021/06/05 18:43:14;;;;;;;11.65;6.78;;;;;;;24.07;89.31;101318.78;4919381;29;20382;-76
2021/06/05 18:46:03;;;;;;;13.32;6.68;;;;;;;24.19;88.94;101318.00;4906871;29;20043;-76
2021/06/05 18:48:49;;;;;;;11.60;6.18;;;;;;;23.98;89.56;101314.03;4919612;29;20032;-75
2021/06/05 18:51:41;;;;;;;13.65;6.40;;;;;;;23.92;89.83;101327.78;4906295;29;20033;-75
2021/06/05 18:54:28;;;;;;;10.65;6.90;;;;;;;23.79;90.99;101330.31;4919506;29;20047;-75
2021/06/05 18:57:16;;;;;;;14.85;6.45;;;;;;;23.39;93.86;101323.91;4920491;29;20402;-75
2021/06/05 19:00:06;;;;;;;12.02;6.78;;;;;;;23.56;91.95;101330.03;4920090;29;20124;-75
2021/06/05 19:02:55;;;;;;;11.68;7.20;;;;;;;23.53;93.85;101328.41;4919733;29;20032;-75
2021/06/05 19:05:42;;;;;;;14.50;7.63;;;;;;;23.60;95.71;101328.91;4920053;29;20028;-75
2021/06/05 19:08:30;;;;;;;14.38;7.93;;;;;;;23.32;100.00;101332.41;4919928;29;20063;-75
2021/06/05 19:11:17;;;;;;;16.75;8.45;;;;;;;23.38;99.79;101331.16;4919562;29;20111;-75
2021/06/05 19:14:02;;;;;;;18.48;8.10;;;;;;;23.35;99.26;101329.53;4919828;29;20127;-75
2021/06/05 19:16:49;;;;;;;20.40;7.35;;;;;;;23.43;98.28;101325.44;4893448;29;20036;-75
2021/06/05 19:19:35;;;;;;;13.93;7.68;;;;;;;23.26;100.00;101327.41;4905713;29;20042;-75
2021/06/05 19:22:21;;;;;;;13.82;6.60;;;;;;;23.35;97.85;101337.56;4919707;29;20221;-75
2021/06/05 19:25:09;;;;;;;15.55;7.05;;;;;;;23.32;97.76;101332.41;4905574;29;20032;-75
2021/06/05 19:27:57;;;;;;;15.45;6.90;;;;;;;23.24;100.00;101335.50;4919096;29;20099;-75
2021/06/05 19:30:46;;;;;;;13.82;6.80;;;;;;;23.31;99.37;101339.53;4919420;29;20032;-75
2021/06/05 19:33:39;;;;;;;15.85;6.43;;;;;;;23.20;97.78;101346.50;4919372;29;20032;-75
2021/06/05 19:36:30;;;;;;;13.88;6.82;;;;;;;23.01;99.22;101345.81;4905971;29;20529;-75
2021/06/05 19:39:20;;;;;;;16.52;7.10;;;;;;;22.76;100.00;101340.19;4919192;29;20032;-75
2021/06/05 19:42:07;;;;;;;12.95;7.28;;;;;;;22.99;98.60;101339.72;4905099;29;20111;-75
2021/06/05 19:44:53;;;;;;;12.27;6.57;;;;;;;23.06;98.55;101330.38;4919721;29;20464;-75
2021/06/05 19:47:39;;;;;;;12.82;7.13;;;;;;;22.97;99.72;101323.78;4919036;29;20024;-75
2021/06/05 19:50:26;;;;;;;12.75;7.55;;;;;;;22.89;99.53;101323.34;4919197;29;20092;-75
2021/06/05 19:53:13;;;;;;;16.05;7.38;;;;;;;22.82;100.00;101327.31;4918140;29;20134;-75
2021/06/05 19:56:00;;;;;;;18.00;7.63;;;;;;;22.75;100.00;101325.94;4918695;29;20028;-75
2021/06/05 19:58:46;;;;;;;14.90;8.13;;;;;;;22.58;100.00;101323.41;4919155;29;20119;-75
2021/06/05 20:01:33;;;;;;;24.25;8.48;;;;;;;22.36;100.00;101325.53;4904966;29;20035;-75
2021/06/05 20:04:19;;;;;;;21.65;8.70;;;;;;;22.42;100.00;101327.00;4918762;29;20043;-75
2021/06/05 20:07:07;;;;;;;16.33;8.70;;;;;;;22.46;100.00;101323.19;4919201;29;20028;-76
2021/06/05 20:09:53;;;;;;;16.55;8.40;;;;;;;22.12;100.00;101321.56;4918867;29;20070;-76
2021/06/05 20:12:38;;;;;;;15.18;8.45;;;;;;;22.30;100.00;101315.19;4918748;29;20032;-76
2021/06/05 20:15:34;;;;;;;16.98;8.82;;;;;;;22.61;100.00;101314.34;4905307;29;20055;-76
2021/06/05 20:18:22;;;;;;;20.30;9.73;;;;;;;22.32;100.00;101313.31;4918124;29;20372;-76
2021/06/05 20:21:10;;;;;;;15.93;9.55;;;;;;;22.24;100.00;101317.34;4918655;29;20028;-75
2021/06/05 20:23:57;;;;;;;15.45;9.55;;;;;;;22.34;100.00;101313.22;4917688;29;20064;-75
2021/06/05 20:26:44;;;;;;;17.13;8.90;;;;;;;22.48;100.00;101311.53;4918258;29;20107;-75
2021/06/05 20:29:30;;;;;;;16.95;9.02;;;;;;;22.39;100.00;101317.34;4917706;29;20028;-75
2021/06/05 20:32:19;;;;;;;13.02;8.40;;;;;;;22.38;100.00;101314.78;4918364;29;20538;-75
2021/06/05 20:35:06;;;;;;;12.95;6.93;;;;;;;22.32;100.00;101321.31;4918541;29;20103;-76
2021/06/05 20:37:53;;;;;;;10.70;6.63;;;;;;;22.18;100.00;101307.88;4919056;29;20036;-75
2021/06/05 20:40:40;;;;;;;8.95;6.57;;;;;;;21.98;100.00;101304.59;4918280;29;20036;-76
2021/06/05 20:43:27;;;;;;;12.48;6.45;;;;;;;21.92;100.00;101300.47;4919219;29;20089;-75
2021/06/05 20:46:16;;;;;;;9.02;6.35;;;;;;;21.91;100.00;101297.88;4908073;29;20059;-76
2021/06/05 20:49:06;;;;;;;12.25;5.85;;;;;;;22.02;100.00;101299.00;4905607;29;20028;-75
2021/06/05 20:51:55;;;;;;;7.20;6.00;;;;;;;22.17;100.00;101290.16;4904615;29;20060;-76
2021/06/05 20:54:41;;;;;;;11.93;6.40;;;;;;;21.96;100.00;101291.34;4914794;29;20024;-75
2021/06/05 20:57:27;;;;;;;10.70;5.90;;;;;;;21.91;100.00;101281.88;4924198;29;20070;-76
2021/06/05 21:00:31;;;;;;;7.72;6.38;;;;;;;22.08;100.00;101288.00;4925066;29;20028;-75
2021/06/05 21:03:23;;;;;;;10.15;5.75;;;;;;;21.93;100.00;101274.63;4904272;29;20103;-76
2021/06/05 21:06:10;;;;;;;8.27;5.57;;;;;;;22.02;100.00;101269.63;4928257;29;20457;-76
2021/06/05 21:08:58;;;;;;;9.38;5.47;;;;;;;21.92;100.00;101272.91;4922968;29;20047;-78
2021/06/05 21:11:43;;;;;;;8.70;5.28;;;;;;;21.91;100.00;101269.38;4929079;29;20032;-75
2021/06/05 21:14:29;;;;;;;7.07;5.13;;;;;;;22.22;100.00;101274.72;4913786;29;20027;-74
2021/06/05 21:17:15;;;;;;;5.75;5.15;;;;;;;22.13;100.00;101277.91;4932800;29;20035;-75
2021/06/05 21:20:01;;;;;;;10.88;5.03;;;;;;;22.03;100.00;101276.69;4924346;29;20047;-75
2021/06/05 21:22:47;;;;;;;5.75;5.05;;;;;;;22.10;100.00;101277.22;4922446;29;20032;-76
2021/06/05 21:25:32;;;;;;;9.45;5.50;;;;;;;22.05;100.00;101273.94;4922096;29;20032;-76
2021/06/05 21:28:19;;;;;;;5.57;4.70;;;;;;;22.00;100.00;101276.88;4922507;29;20032;-76
2021/06/05 21:31:05;;;;;;;8.20;5.53;;;;;;;21.66;100.00;101279.63;4921611;29;20369;-76
2021/06/05 21:33:53;;;;;;;8.13;4.80;;;;;;;21.87;100.00;101280.31;4907900;29;20039;-76
2021/06/05 21:36:39;;;;;;;5.47;4.93;;;;;;;21.77;100.00;101279.06;4921494;29;20024;-75
2021/06/05 21:39:27;;;;;;;5.85;4.35;;;;;;;22.00;100.00;101282.22;4921127;29;20032;-75
2021/06/05 21:42:12;;;;;;;5.90;4.78;;;;;;;21.92;100.00;101283.56;4921029;29;20082;-75
2021/06/05 21:44:59;;;;;;;6.57;4.65;;;;;;;21.91;100.00;101285.38;4909016;29;20032;-75
2021/06/05 21:47:47;;;;;;;6.70;4.68;;;;;;;21.90;100.00;101274.81;4921303;29;20025;-76